createdAt,value
2018-10-12T00:01:37.449Z,13.10
2018-10-12T00:04:06.660Z,13.10
2018-10-12T00:06:35.480Z,13.10
2018-10-12T00:09:05.017Z,13.20
2018-10-12T00:11:33.879Z,13.10
2018-10-12T00:14:02.619Z,13.00
2018-10-12T00:16:31.443Z,13.00
2018-10-12T00:19:00.235Z,12.90
2018-10-12T00:21:29.034Z,12.90
2018-10-12T00:23:57.816Z,12.90
2018-10-12T00:26:26.643Z,12.80
2018-10-12T00:28:58.204Z,12.80
2018-10-12T00:31:27.001Z,12.80
2018-10-12T00:33:55.802Z,12.70
2018-10-12T00:36:24.588Z,12.70
2018-10-12T00:38:53.375Z,12.60
2018-10-12T00:41:22.156Z,12.60
2018-10-12T00:43:50.971Z,12.60
2018-10-12T00:46:19.908Z,12.50
2018-10-12T00:48:48.711Z,12.40
2018-10-12T00:51:17.529Z,12.40
2018-10-12T00:53:46.328Z,12.40
2018-10-12T00:56:15.087Z,12.40
2018-10-12T00:58:43.925Z,12.30
2018-10-12T01:01:12.799Z,12.20
2018-10-12T01:03:41.584Z,12.30
2018-10-12T01:06:10.357Z,12.30
2018-10-12T01:08:39.165Z,12.30
2018-10-12T01:11:08.396Z,12.10
2018-10-12T01:13:37.244Z,12.10
2018-10-12T01:16:06.037Z,12.10
2018-10-12T01:18:34.918Z,12.10
2018-10-12T01:21:03.905Z,12.20
2018-10-12T01:23:32.815Z,12.30
2018-10-12T01:26:01.728Z,12.30
2018-10-12T01:28:30.584Z,12.20
2018-10-12T01:30:59.414Z,12.20
2018-10-12T01:33:28.207Z,12.20
2018-10-12T01:35:57.083Z,12.00
2018-10-12T01:38:25.948Z,12.00
2018-10-12T01:40:54.749Z,11.90
2018-10-12T01:43:23.546Z,11.90
2018-10-12T01:45:52.367Z,11.80
2018-10-12T01:48:21.208Z,11.80
2018-10-12T01:50:50.048Z,11.90
2018-10-12T01:53:18.849Z,11.90
2018-10-12T01:55:47.672Z,11.90
2018-10-12T01:58:16.476Z,12.00
2018-10-12T02:00:45.348Z,11.90
2018-10-12T02:03:14.156Z,11.90
2018-10-12T02:05:42.940Z,11.90
2018-10-12T02:08:11.724Z,11.90
2018-10-12T02:10:40.517Z,11.90
2018-10-12T02:13:09.352Z,11.90
2018-10-12T02:15:38.127Z,11.90
2018-10-12T02:18:06.992Z,11.90
2018-10-12T02:20:35.808Z,11.90
2018-10-12T02:23:04.621Z,11.80
2018-10-12T02:25:33.561Z,11.80
2018-10-12T02:28:02.368Z,11.80
2018-10-12T02:30:31.194Z,11.80
2018-10-12T02:33:00.007Z,11.80
2018-10-12T02:35:28.845Z,11.70
2018-10-12T02:37:57.649Z,11.70
2018-10-12T02:40:26.548Z,11.70
2018-10-12T02:42:58.126Z,11.60
2018-10-12T02:45:26.977Z,11.60
2018-10-12T02:47:55.740Z,11.60
2018-10-12T02:50:24.612Z,11.60
2018-10-12T02:52:53.394Z,11.50
2018-10-12T02:55:22.252Z,11.50
2018-10-12T02:57:51.067Z,11.50
2018-10-12T03:00:19.852Z,11.50
2018-10-12T03:02:48.684Z,11.40
2018-10-12T03:05:17.470Z,11.20
2018-10-12T03:07:46.303Z,11.20
2018-10-12T03:10:15.124Z,11.20
2018-10-12T03:12:43.919Z,11.30
2018-10-12T03:15:12.792Z,11.30
2018-10-12T03:17:41.585Z,11.30
2018-10-12T03:20:10.371Z,11.30
2018-10-12T03:22:39.177Z,11.20
2018-10-12T03:25:08.071Z,11.20
2018-10-12T03:27:48.072Z,11.20
2018-10-12T03:30:17.076Z,11.20
2018-10-12T03:32:45.856Z,11.20
2018-10-12T03:35:14.901Z,11.10
2018-10-12T03:37:43.983Z,11.10
2018-10-12T03:40:12.892Z,11.10
2018-10-12T03:42:41.704Z,11.10
2018-10-12T03:45:10.643Z,11.10
2018-10-12T03:47:39.511Z,11.10
2018-10-12T03:50:08.331Z,11.20
2018-10-12T03:52:37.191Z,11.20
2018-10-12T03:55:06.216Z,11.20
2018-10-12T03:57:35.034Z,11.10
2018-10-12T04:00:04.460Z,11.10
2018-10-12T04:02:33.281Z,11.10
2018-10-12T04:05:02.159Z,11.10
2018-10-12T04:07:30.964Z,11.10
2018-10-12T04:09:59.723Z,11.10
2018-10-12T04:12:28.595Z,11.10
2018-10-12T04:14:57.364Z,11.10
2018-10-12T04:17:26.187Z,11.10
2018-10-12T04:19:54.982Z,11.10
2018-10-12T04:22:25.507Z,11.00
2018-10-12T04:24:54.446Z,11.00
2018-10-12T04:27:25.740Z,10.90
2018-10-12T04:29:54.571Z,10.90
2018-10-12T04:32:23.377Z,10.90
2018-10-12T04:34:52.225Z,10.90
2018-10-12T04:37:21.001Z,10.90
2018-10-12T04:39:57.696Z,10.80
2018-10-12T04:42:26.488Z,10.80
2018-10-12T04:44:55.372Z,10.80
2018-10-12T04:47:27.364Z,10.70
2018-10-12T04:49:56.933Z,10.60
2018-10-12T04:52:27.314Z,10.60
2018-10-12T04:54:56.158Z,10.50
2018-10-12T04:57:25.012Z,10.50
2018-10-12T04:59:54.001Z,10.60
2018-10-12T05:02:22.868Z,10.60
2018-10-12T05:04:51.647Z,10.60
2018-10-12T05:07:20.457Z,10.60
2018-10-12T05:09:49.329Z,10.60
2018-10-12T05:12:18.104Z,10.60
2018-10-12T05:14:46.948Z,10.60
2018-10-12T05:17:15.832Z,10.60
2018-10-12T05:19:44.645Z,10.60
2018-10-12T05:22:13.572Z,10.50
2018-10-12T05:24:42.330Z,10.30
2018-10-12T05:27:11.101Z,10.40
2018-10-12T05:29:39.904Z,10.40
2018-10-12T05:32:08.702Z,10.40
2018-10-12T05:34:37.510Z,10.40
2018-10-12T05:37:06.388Z,10.40
2018-10-12T05:39:35.224Z,10.40
2018-10-12T05:42:04.029Z,10.30
2018-10-12T05:44:32.880Z,10.20
2018-10-12T05:47:01.727Z,10.30
2018-10-12T05:49:53.405Z,10.30
2018-10-12T05:52:22.368Z,10.40
2018-10-12T05:54:51.284Z,10.40
2018-10-12T05:57:20.185Z,10.50
2018-10-12T05:59:49.089Z,10.50
2018-10-12T06:02:17.966Z,10.50
2018-10-12T06:04:47.012Z,10.50
2018-10-12T06:07:15.884Z,10.50
2018-10-12T06:09:44.764Z,10.50
2018-10-12T06:12:13.496Z,10.50
2018-10-12T06:14:42.359Z,10.50
2018-10-12T06:17:11.225Z,10.50
2018-10-12T06:19:40.136Z,10.50
2018-10-12T06:22:09.222Z,10.40
2018-10-12T06:24:38.034Z,10.30
2018-10-12T06:27:06.857Z,10.30
2018-10-12T06:29:35.677Z,10.30
2018-10-12T06:32:04.480Z,10.40
2018-10-12T06:34:33.816Z,10.40
2018-10-12T06:37:02.659Z,10.50
2018-10-12T06:39:31.491Z,10.50
2018-10-12T06:42:00.286Z,10.60
2018-10-12T06:44:29.082Z,10.70
2018-10-12T06:46:57.915Z,10.70
2018-10-12T06:49:26.698Z,10.70
2018-10-12T06:51:55.521Z,10.80
2018-10-12T06:54:24.381Z,10.80
2018-10-12T06:56:53.124Z,10.80
2018-10-12T06:59:21.951Z,10.80
2018-10-12T07:01:50.852Z,10.80
2018-10-12T07:04:19.676Z,10.90
2018-10-12T07:06:48.608Z,10.90
2018-10-12T07:09:17.436Z,11.00
2018-10-12T07:11:46.277Z,11.00
2018-10-12T07:14:15.134Z,11.00
2018-10-12T07:16:43.908Z,11.00
2018-10-12T07:19:12.784Z,11.00
2018-10-12T07:21:41.611Z,11.10
2018-10-12T07:24:10.493Z,11.10
2018-10-12T07:26:39.328Z,11.20
2018-10-12T07:29:08.209Z,11.10
2018-10-12T07:31:37.073Z,11.20
2018-10-12T07:34:05.873Z,11.20
2018-10-12T07:36:34.669Z,11.20
2018-10-12T07:39:04.949Z,11.30
2018-10-12T07:41:33.748Z,11.30
2018-10-12T07:44:02.574Z,11.40
2018-10-12T07:46:31.377Z,11.40
2018-10-12T07:49:00.171Z,11.40
2018-10-12T07:51:28.987Z,11.40
2018-10-12T07:53:57.798Z,11.50
2018-10-12T07:56:26.654Z,11.50
2018-10-12T07:58:55.471Z,11.60
2018-10-12T08:01:24.235Z,11.60
2018-10-12T08:03:53.053Z,11.60
2018-10-12T08:06:21.963Z,11.70
2018-10-12T08:08:50.750Z,11.70
2018-10-12T08:11:19.592Z,11.70
2018-10-12T08:13:48.524Z,11.70
2018-10-12T08:16:17.362Z,11.80
2018-10-12T08:18:46.298Z,11.80
2018-10-12T08:21:15.170Z,11.80
2018-10-12T08:23:43.931Z,11.90
2018-10-12T08:26:12.745Z,11.90
2018-10-12T08:28:41.528Z,11.90
2018-10-12T08:31:10.356Z,11.90
2018-10-12T08:33:39.804Z,12.00
2018-10-12T08:36:08.645Z,12.00
2018-10-12T08:38:37.408Z,12.00
2018-10-12T08:41:06.267Z,12.10
2018-10-12T08:43:35.084Z,12.10
2018-10-12T08:46:03.911Z,12.10
2018-10-12T08:48:32.756Z,12.10
2018-10-12T08:51:01.581Z,12.20
2018-10-12T08:53:30.418Z,12.20
2018-10-12T08:55:59.232Z,12.30
2018-10-12T08:58:28.072Z,12.30
2018-10-12T09:00:56.901Z,12.40
2018-10-12T09:03:25.721Z,12.40
2018-10-12T09:05:54.569Z,12.50
2018-10-12T09:08:23.390Z,12.60
2018-10-12T09:10:52.267Z,12.60
2018-10-12T09:13:21.087Z,12.70
2018-10-12T09:15:49.865Z,12.70
2018-10-12T09:18:18.637Z,12.80
2018-10-12T09:20:47.556Z,12.90
2018-10-12T09:23:16.364Z,12.90
2018-10-12T09:25:45.547Z,13.00
2018-10-12T09:28:14.315Z,13.10
2018-10-12T09:30:43.122Z,13.20
2018-10-12T09:33:11.916Z,13.20
2018-10-12T09:35:40.777Z,13.30
2018-10-12T09:38:09.548Z,13.40
2018-10-12T09:40:38.363Z,13.50
2018-10-12T09:43:07.197Z,13.60
2018-10-12T09:45:35.988Z,13.60
2018-10-12T09:48:04.832Z,13.70
2018-10-12T09:50:33.684Z,13.80
2018-10-12T09:53:02.476Z,13.90
2018-10-12T09:55:31.267Z,13.90
2018-10-12T09:58:00.044Z,14.00
2018-10-12T10:00:33.961Z,14.10
2018-10-12T10:03:07.948Z,14.20
2018-10-12T10:05:36.792Z,14.30
2018-10-12T10:08:05.675Z,14.40
2018-10-12T10:10:34.433Z,14.50
2018-10-12T10:13:03.339Z,14.60
2018-10-12T10:15:32.167Z,14.70
2018-10-12T10:18:00.972Z,14.80
2018-10-12T10:20:29.825Z,14.90
2018-10-12T10:22:58.600Z,15.00
2018-10-12T10:25:27.515Z,15.10
2018-10-12T10:27:56.315Z,15.20
2018-10-12T10:30:25.176Z,15.30
2018-10-12T10:32:53.985Z,15.50
2018-10-12T10:35:22.821Z,15.60
2018-10-12T10:37:51.639Z,15.70
2018-10-12T10:40:20.461Z,15.80
2018-10-12T10:42:49.324Z,15.90
2018-10-12T10:45:18.136Z,16.10
2018-10-12T10:47:46.951Z,16.20
2018-10-12T10:50:15.780Z,16.30
2018-10-12T10:52:44.532Z,16.40
2018-10-12T10:55:13.413Z,16.50
2018-10-12T10:57:42.253Z,16.60
2018-10-12T11:00:11.093Z,16.80
2018-10-12T11:02:39.892Z,16.90
2018-10-12T11:05:08.735Z,17.10
2018-10-12T11:07:37.579Z,17.20
2018-10-12T11:10:06.506Z,17.30
2018-10-12T11:12:35.410Z,17.40
2018-10-12T11:15:04.224Z,17.50
2018-10-12T11:17:33.060Z,17.70
2018-10-12T11:20:01.900Z,17.80
2018-10-12T11:22:30.697Z,18.00
2018-10-12T11:24:59.498Z,18.00
2018-10-12T11:27:28.312Z,18.20
2018-10-12T11:29:57.130Z,18.30
2018-10-12T11:32:25.994Z,18.40
2018-10-12T11:34:54.773Z,18.50
2018-10-12T11:37:23.592Z,18.60
2018-10-12T11:39:52.381Z,18.80
2018-10-12T11:42:21.216Z,18.90
2018-10-12T11:44:50.185Z,19.00
2018-10-12T11:47:18.926Z,19.10
2018-10-12T11:49:47.742Z,19.20
2018-10-12T11:52:16.566Z,19.30
2018-10-12T11:54:45.383Z,19.40
2018-10-12T11:57:14.233Z,19.60
2018-10-12T11:59:43.044Z,19.70
2018-10-12T12:02:11.879Z,19.80
2018-10-12T12:04:40.684Z,19.90
2018-10-12T12:07:09.496Z,20.00
2018-10-12T12:09:38.442Z,20.10
2018-10-12T12:12:07.557Z,20.20
2018-10-12T12:14:36.377Z,20.30
2018-10-12T12:17:05.253Z,20.40
2018-10-12T12:19:34.074Z,20.50
2018-10-12T12:22:03.002Z,20.60
2018-10-12T12:24:31.764Z,20.70
2018-10-12T12:27:00.584Z,20.80
2018-10-12T12:29:29.472Z,20.80
2018-10-12T12:31:58.260Z,20.90
2018-10-12T12:34:27.190Z,21.10
2018-10-12T12:36:55.968Z,21.20
2018-10-12T12:39:24.784Z,21.20
2018-10-12T12:41:53.580Z,21.30
2018-10-12T12:44:22.363Z,21.40
2018-10-12T12:46:51.232Z,21.50
2018-10-12T12:49:20.354Z,21.50
2018-10-12T12:51:48.896Z,21.60
2018-10-12T12:54:17.733Z,21.60
2018-10-12T12:56:46.562Z,21.70
2018-10-12T12:59:15.381Z,21.80
2018-10-12T13:01:44.167Z,21.90
2018-10-12T13:04:12.953Z,22.00
2018-10-12T13:06:41.756Z,22.00
2018-10-12T13:09:11.009Z,22.10
2018-10-12T13:11:39.851Z,22.20
2018-10-12T13:14:08.706Z,22.30
2018-10-12T13:16:37.509Z,22.30
2018-10-12T13:19:06.813Z,22.40
2018-10-12T13:21:35.720Z,22.50
2018-10-12T13:24:04.545Z,22.50
2018-10-12T13:26:33.331Z,22.60
2018-10-12T13:31:02.245Z,22.70
2018-10-12T13:33:31.278Z,22.70
2018-10-12T13:36:00.077Z,22.80
2018-10-12T13:38:28.850Z,22.90
2018-10-12T13:40:57.682Z,22.90
2018-10-12T13:43:26.597Z,23.00
2018-10-12T13:46:02.100Z,23.00
2018-10-12T13:48:31.153Z,23.10
2018-10-12T13:51:00.097Z,23.10
2018-10-12T13:53:29.399Z,23.20
2018-10-12T13:55:58.232Z,23.30
2018-10-12T13:58:27.176Z,23.30
2018-10-12T14:00:56.001Z,23.30
2018-10-12T14:03:24.943Z,23.30
2018-10-12T14:05:53.834Z,23.40
2018-10-12T14:08:22.678Z,23.40
2018-10-12T14:10:51.855Z,23.40
2018-10-12T14:13:20.834Z,23.50
2018-10-12T14:15:49.673Z,23.50
2018-10-12T14:18:18.515Z,23.40
2018-10-12T14:20:47.393Z,23.40
2018-10-12T14:23:16.216Z,23.50
2018-10-12T14:25:45.022Z,23.40
2018-10-12T14:28:13.818Z,23.40
2018-10-12T14:30:42.647Z,23.50
2018-10-12T14:33:11.542Z,23.50
2018-10-12T14:35:40.446Z,23.50
2018-10-12T14:38:09.295Z,23.50
2018-10-12T14:40:38.220Z,23.40
2018-10-12T14:43:07.106Z,23.40
2018-10-12T14:45:36.140Z,23.40
2018-10-12T14:48:05.033Z,23.40
2018-10-12T14:50:33.912Z,23.30
2018-10-12T14:53:02.945Z,23.30
2018-10-12T14:55:31.856Z,23.30
2018-10-12T14:58:00.744Z,23.20
2018-10-12T15:00:29.680Z,23.10
2018-10-12T15:02:58.533Z,23.10
2018-10-12T15:05:27.407Z,23.00
2018-10-12T15:07:56.307Z,23.00
2018-10-12T15:10:25.263Z,23.00
2018-10-12T15:12:54.195Z,23.00
2018-10-12T15:15:24.403Z,22.90
2018-10-12T15:17:54.331Z,22.90
2018-10-12T15:20:23.392Z,22.80
2018-10-12T15:22:52.366Z,22.80
2018-10-12T15:25:21.439Z,22.70
2018-10-12T15:27:50.343Z,22.70
2018-10-12T15:30:19.860Z,22.60
2018-10-12T15:32:48.713Z,22.60
2018-10-12T15:35:17.672Z,22.50
2018-10-12T15:37:46.588Z,22.40
2018-10-12T15:40:15.579Z,22.40
2018-10-12T15:42:44.687Z,22.30
2018-10-12T15:45:13.495Z,22.20
2018-10-12T15:48:58.164Z,22.20
2018-10-12T15:51:27.482Z,22.10
2018-10-12T15:53:56.288Z,22.00
2018-10-12T15:56:25.132Z,21.90
2018-10-12T15:58:53.937Z,21.90
2018-10-12T16:01:22.717Z,21.70
2018-10-12T16:03:51.558Z,21.60
2018-10-12T16:06:20.689Z,21.50
2018-10-12T16:08:49.568Z,21.40
2018-10-12T16:11:18.443Z,21.30
2018-10-12T16:13:47.308Z,21.30
2018-10-12T16:16:16.129Z,21.20
2018-10-12T16:18:44.949Z,21.20
2018-10-12T16:21:13.760Z,21.20
2018-10-12T16:23:42.643Z,21.10
2018-10-12T16:26:18.077Z,21.10
2018-10-12T16:28:46.862Z,21.10
2018-10-12T16:31:15.672Z,21.10
2018-10-12T16:33:44.445Z,21.10
2018-10-12T16:36:13.449Z,21.00
2018-10-12T16:38:42.248Z,20.80
2018-10-12T16:41:11.101Z,20.80
2018-10-12T16:43:39.961Z,20.60
2018-10-12T16:46:08.797Z,20.60
2018-10-12T16:48:37.635Z,20.60
2018-10-12T16:51:06.664Z,20.60
2018-10-12T16:53:35.893Z,20.50
2018-10-12T16:56:04.696Z,20.40
2018-10-12T16:58:33.513Z,20.40
2018-10-12T17:01:02.362Z,20.30
2018-10-12T17:03:31.168Z,20.30
2018-10-12T17:06:00.062Z,20.20
2018-10-12T17:08:28.920Z,20.20
2018-10-12T17:10:57.807Z,20.20
2018-10-12T17:13:26.617Z,20.10
2018-10-12T17:15:55.433Z,20.00
2018-10-12T17:18:24.282Z,20.00
2018-10-12T17:20:53.110Z,19.90
2018-10-12T17:23:21.987Z,19.80
2018-10-12T17:25:50.820Z,19.80
2018-10-12T17:28:19.782Z,19.70
2018-10-12T17:30:48.724Z,19.70
2018-10-12T17:33:17.646Z,19.60
2018-10-12T17:35:46.472Z,19.60
2018-10-12T17:38:15.318Z,19.50
2018-10-12T17:40:44.199Z,19.50
2018-10-12T17:43:13.031Z,19.50
2018-10-12T17:45:41.950Z,19.40
2018-10-12T17:48:10.769Z,19.40
2018-10-12T17:50:39.570Z,19.30
2018-10-12T17:53:08.372Z,19.20
2018-10-12T17:55:37.227Z,19.20
2018-10-12T17:58:10.170Z,19.20
2018-10-12T18:00:42.030Z,19.10
2018-10-12T18:03:14.922Z,19.00
2018-10-12T18:05:47.568Z,18.90
2018-10-12T18:08:19.530Z,18.80
2018-10-12T18:10:51.240Z,18.80
2018-10-12T18:13:23.770Z,18.80
2018-10-12T18:15:52.608Z,18.70
2018-10-12T18:18:21.448Z,18.70
2018-10-12T18:20:50.287Z,18.60
2018-10-12T18:23:19.135Z,18.30
2018-10-12T18:25:48.037Z,18.30
2018-10-12T18:28:16.823Z,18.20
2018-10-12T18:30:45.664Z,18.00
2018-10-12T18:33:14.482Z,17.70
2018-10-12T18:35:43.291Z,17.70
2018-10-12T18:38:12.146Z,17.70
2018-10-12T18:40:40.967Z,17.50
2018-10-12T18:43:09.876Z,17.40
2018-10-12T18:45:38.754Z,17.50
2018-10-12T18:48:07.756Z,17.60
2018-10-12T18:50:36.608Z,17.80
2018-10-12T18:53:05.371Z,17.80
2018-10-12T18:55:34.229Z,17.80
2018-10-12T18:58:03.159Z,17.80
2018-10-12T19:00:31.993Z,17.80
2018-10-12T19:03:00.864Z,17.80
2018-10-12T19:05:29.705Z,17.80
2018-10-12T19:07:58.501Z,17.80
2018-10-12T19:10:27.362Z,17.70
2018-10-12T19:12:56.221Z,17.70
2018-10-12T19:15:25.212Z,17.60
2018-10-12T19:17:54.079Z,17.60
2018-10-12T19:20:22.979Z,17.60
2018-10-12T19:22:51.872Z,17.50
2018-10-12T19:25:20.733Z,17.50
2018-10-12T19:27:49.677Z,17.40
2018-10-12T19:30:18.641Z,17.40
2018-10-12T19:32:47.461Z,17.40
2018-10-12T19:35:16.357Z,17.40
2018-10-12T19:37:45.384Z,17.30
2018-10-12T19:40:14.312Z,17.20
2018-10-12T19:42:43.136Z,17.00
2018-10-12T19:45:11.997Z,17.10
2018-10-12T19:47:40.811Z,17.10
2018-10-12T19:50:09.704Z,17.00
2018-10-12T19:52:38.688Z,16.90
2018-10-12T19:55:07.551Z,16.90
2018-10-12T19:57:36.378Z,16.80
2018-10-12T20:00:05.453Z,16.80
2018-10-12T20:02:34.389Z,16.80
2018-10-12T20:05:04.091Z,16.80
2018-10-12T20:07:32.978Z,16.80
2018-10-12T20:10:01.792Z,16.70
2018-10-12T20:12:30.639Z,16.70
2018-10-12T20:14:59.440Z,16.70
2018-10-12T20:17:28.304Z,16.70
2018-10-12T20:19:57.125Z,16.60
2018-10-12T20:22:25.948Z,16.60
2018-10-12T20:24:54.785Z,16.50
2018-10-12T20:27:23.641Z,16.40
2018-10-12T20:29:52.559Z,16.40
2018-10-12T20:32:21.360Z,16.20
2018-10-12T20:34:50.231Z,16.00
2018-10-12T20:37:19.170Z,16.00
2018-10-12T20:39:47.953Z,16.10
2018-10-12T20:42:16.809Z,16.10
2018-10-12T20:44:45.649Z,16.10
2018-10-12T20:47:14.453Z,16.00
2018-10-12T20:49:43.293Z,16.00
2018-10-12T20:52:12.118Z,15.90
2018-10-12T20:54:41.014Z,15.80
2018-10-12T20:57:09.995Z,15.70
2018-10-12T20:59:38.799Z,15.60
2018-10-12T21:02:07.771Z,15.70
2018-10-12T21:04:36.643Z,15.70
2018-10-12T21:07:05.659Z,15.80
2018-10-12T21:09:34.568Z,15.80
2018-10-12T21:12:03.413Z,15.70
2018-10-12T21:14:32.890Z,15.70
2018-10-12T21:17:01.773Z,15.70
2018-10-12T21:19:32.088Z,15.60
2018-10-12T21:22:02.636Z,15.60
2018-10-12T21:24:31.433Z,15.60
2018-10-12T21:27:00.267Z,15.60
2018-10-12T21:29:29.098Z,15.60
2018-10-12T21:31:58.075Z,15.40
2018-10-12T21:34:26.858Z,15.50
2018-10-12T21:36:55.749Z,15.40
2018-10-12T21:39:24.607Z,15.40
2018-10-12T21:41:53.444Z,15.30
2018-10-12T21:44:22.277Z,15.30
2018-10-12T21:46:51.176Z,15.30
2018-10-12T21:49:20.020Z,15.20
2018-10-12T21:51:48.834Z,15.20
2018-10-12T21:54:17.662Z,15.10
2018-10-12T21:56:46.487Z,15.10
2018-10-12T21:59:15.280Z,15.00
2018-10-12T22:01:44.092Z,15.00
2018-10-12T22:04:12.906Z,14.90
2018-10-12T22:06:41.735Z,14.90
2018-10-12T22:09:10.582Z,14.90
2018-10-12T22:11:39.393Z,14.90
2018-10-12T22:14:08.225Z,14.90
2018-10-12T22:16:37.020Z,14.90
2018-10-12T22:19:06.005Z,14.90
2018-10-12T22:21:34.821Z,14.80
2018-10-12T22:24:03.630Z,14.70
2018-10-12T22:26:32.431Z,14.80
2018-10-12T22:29:01.239Z,14.70
2018-10-12T22:31:30.063Z,14.60
2018-10-12T22:33:58.892Z,14.60
2018-10-12T22:36:27.682Z,14.60
2018-10-12T22:38:56.491Z,14.60
2018-10-12T22:41:25.345Z,14.50
2018-10-12T22:43:54.148Z,14.50
2018-10-12T22:46:23.008Z,14.40
2018-10-12T22:48:51.837Z,14.40
2018-10-12T22:51:21.075Z,14.40
2018-10-12T22:53:49.884Z,14.40
2018-10-12T22:56:18.785Z,14.30
2018-10-12T22:58:47.613Z,14.30
2018-10-12T23:01:16.461Z,14.30
2018-10-12T23:03:45.264Z,14.20
2018-10-12T23:06:14.088Z,14.20
2018-10-12T23:08:42.877Z,14.10
2018-10-12T23:11:11.768Z,14.10
2018-10-12T23:13:40.616Z,14.10
2018-10-12T23:16:09.448Z,14.00
2018-10-12T23:18:38.273Z,14.00
2018-10-12T23:21:07.100Z,14.00
2018-10-12T23:23:35.921Z,14.00
2018-10-12T23:26:04.761Z,14.00
2018-10-12T23:28:33.554Z,14.00
2018-10-12T23:31:02.384Z,13.90
2018-10-12T23:33:42.333Z,13.90
2018-10-12T23:36:11.174Z,13.80
2018-10-12T23:38:40.001Z,13.80
2018-10-12T23:41:08.835Z,13.60
2018-10-12T23:43:37.637Z,13.60
2018-10-12T23:46:06.516Z,13.60
2018-10-12T23:48:35.329Z,13.60
2018-10-12T23:51:04.151Z,13.60
2018-10-12T23:53:33.001Z,13.60
2018-10-12T23:56:01.878Z,13.50
2018-10-12T23:58:30.661Z,13.50
